sensor_id;sensor_type;location;lat;lon;timestamp;pressure;altitude;pressure_sealevel;temperature;humidity
54900;BME280;40801;41.924;25.562;2023-04-28T00:01:26;99701.63;;;10.41;72.60
54900;BME280;40801;41.924;25.562;2023-04-28T00:03:52;99691.91;;;10.40;72.96
54900;BME280;40801;41.924;25.562;2023-04-28T00:06:17;99700.44;;;10.47;72.59
54900;BME280;40801;41.924;25.562;2023-04-28T00:08:43;99702.53;;;10.50;72.54
54900;BME280;40801;41.924;25.562;2023-04-28T00:11:11;99701.53;;;10.46;72.46
54900;BME280;40801;41.924;25.562;2023-04-28T00:13:37;99705.31;;;10.45;71.63
54900;BME280;40801;41.924;25.562;2023-04-28T00:16:03;99693.66;;;10.50;71.05
54900;BME280;40801;41.924;25.562;2023-04-28T00:18:28;99703.84;;;10.53;70.46
54900;BME280;40801;41.924;25.562;2023-04-28T00:20:54;99704.63;;;10.53;69.83
54900;BME280;40801;41.924;25.562;2023-04-28T00:23:20;99705.72;;;10.52;69.04
54900;BME280;40801;41.924;25.562;2023-04-28T00:25:53;99703.22;;;10.42;68.58
54900;BME280;40801;41.924;25.562;2023-04-28T00:28:20;99701.97;;;10.35;68.61
54900;BME280;40801;41.924;25.562;2023-04-28T00:30:46;99705.34;;;10.27;68.80
54900;BME280;40801;41.924;25.562;2023-04-28T00:33:11;99711.09;;;10.20;68.55
54900;BME280;40801;41.924;25.562;2023-04-28T00:35:38;99707.38;;;10.16;68.74
54900;BME280;40801;41.924;25.562;2023-04-28T00:38:03;99702.66;;;10.08;68.48
54900;BME280;40801;41.924;25.562;2023-04-28T00:40:36;99706.94;;;10.09;68.58
54900;BME280;40801;41.924;25.562;2023-04-28T00:43:02;99710.50;;;10.04;68.62
54900;BME280;40801;41.924;25.562;2023-04-28T00:45:29;99708.63;;;10.05;68.58
54900;BME280;40801;41.924;25.562;2023-04-28T00:47:55;99707.53;;;10.06;67.99
54900;BME280;40801;41.924;25.562;2023-04-28T00:50:21;99712.41;;;10.04;67.74
54900;BME280;40801;41.924;25.562;2023-04-28T00:52:48;99719.69;;;10.03;67.34
54900;BME280;40801;41.924;25.562;2023-04-28T00:55:15;99719.41;;;10.05;66.26
54900;BME280;40801;41.924;25.562;2023-04-28T00:57:41;99719.19;;;10.01;65.99
54900;BME280;40801;41.924;25.562;2023-04-28T01:00:07;99711.41;;;10.00;65.53
54900;BME280;40801;41.924;25.562;2023-04-28T01:02:34;99711.47;;;9.94;65.18
54900;BME280;40801;41.924;25.562;2023-04-28T01:05:00;99714.97;;;9.95;64.87
54900;BME280;40801;41.924;25.562;2023-04-28T01:07:26;99708.66;;;9.86;64.99
54900;BME280;40801;41.924;25.562;2023-04-28T01:09:51;99710.59;;;9.80;65.04
54900;BME280;40801;41.924;25.562;2023-04-28T01:12:17;99716.84;;;9.76;64.80
54900;BME280;40801;41.924;25.562;2023-04-28T01:14:42;99724.34;;;9.79;64.08
54900;BME280;40801;41.924;25.562;2023-04-28T01:17:09;99719.25;;;9.77;63.23
54900;BME280;40801;41.924;25.562;2023-04-28T01:19:34;99726.75;;;9.80;62.37
54900;BME280;40801;41.924;25.562;2023-04-28T01:22:00;99730.63;;;9.74;61.79
54900;BME280;40801;41.924;25.562;2023-04-28T01:24:25;99725.09;;;9.66;61.35
54900;BME280;40801;41.924;25.562;2023-04-28T01:26:51;99716.13;;;9.70;61.13
54900;BME280;40801;41.924;25.562;2023-04-28T01:29:16;99720.72;;;9.70;60.35
54900;BME280;40801;41.924;25.562;2023-04-28T01:31:41;99722.81;;;9.73;60.19
54900;BME280;40801;41.924;25.562;2023-04-28T01:34:07;99720.34;;;9.76;60.12
54900;BME280;40801;41.924;25.562;2023-04-28T01:36:32;99724.88;;;9.81;60.09
54900;BME280;40801;41.924;25.562;2023-04-28T01:38:58;99717.72;;;9.71;59.58
54900;BME280;40801;41.924;25.562;2023-04-28T01:41:24;99721.38;;;9.80;59.20
54900;BME280;40801;41.924;25.562;2023-04-28T01:43:49;99722.53;;;9.74;58.84
54900;BME280;40801;41.924;25.562;2023-04-28T01:46:15;99729.09;;;9.87;58.42
54900;BME280;40801;41.924;25.562;2023-04-28T01:48:40;99732.59;;;9.87;58.15
54900;BME280;40801;41.924;25.562;2023-04-28T01:51:05;99734.94;;;9.94;57.97
54900;BME280;40801;41.924;25.562;2023-04-28T01:53:31;99730.56;;;9.98;57.44
54900;BME280;40801;41.924;25.562;2023-04-28T01:55:56;99724.88;;;10.00;57.49
54900;BME280;40801;41.924;25.562;2023-04-28T01:58:23;99734.84;;;9.99;56.90
54900;BME280;40801;41.924;25.562;2023-04-28T02:00:48;99734.13;;;9.93;57.43
54900;BME280;40801;41.924;25.562;2023-04-28T02:03:13;99726.25;;;9.97;56.91
54900;BME280;40801;41.924;25.562;2023-04-28T02:05:39;99733.75;;;10.00;57.02
54900;BME280;40801;41.924;25.562;2023-04-28T02:08:04;99737.47;;;10.04;57.40
54900;BME280;40801;41.924;25.562;2023-04-28T02:10:30;99733.47;;;10.02;56.69
54900;BME280;40801;41.924;25.562;2023-04-28T02:12:55;99731.19;;;10.09;56.34
54900;BME280;40801;41.924;25.562;2023-04-28T02:15:20;99739.22;;;10.14;56.10
54900;BME280;40801;41.924;25.562;2023-04-28T02:17:46;99735.88;;;10.22;55.58
54900;BME280;40801;41.924;25.562;2023-04-28T02:20:12;99735.59;;;10.23;55.55
54900;BME280;40801;41.924;25.562;2023-04-28T02:22:39;99741.41;;;10.31;55.23
54900;BME280;40801;41.924;25.562;2023-04-28T02:25:04;99747.69;;;10.26;55.79
54900;BME280;40801;41.924;25.562;2023-04-28T02:27:30;99746.59;;;10.27;55.88
54900;BME280;40801;41.924;25.562;2023-04-28T02:29:55;99756.59;;;10.40;55.44
54900;BME280;40801;41.924;25.562;2023-04-28T02:32:21;99753.84;;;10.45;55.27
54900;BME280;40801;41.924;25.562;2023-04-28T02:34:52;99751.88;;;10.51;54.91
54900;BME280;40801;41.924;25.562;2023-04-28T02:37:17;99761.25;;;10.53;55.34
54900;BME280;40801;41.924;25.562;2023-04-28T02:39:42;99762.19;;;10.63;55.32
54900;BME280;40801;41.924;25.562;2023-04-28T02:42:08;99768.97;;;10.60;55.72
54900;BME280;40801;41.924;25.562;2023-04-28T02:44:33;99778.16;;;10.59;56.38
54900;BME280;40801;41.924;25.562;2023-04-28T02:46:59;99787.13;;;10.54;55.29
54900;BME280;40801;41.924;25.562;2023-04-28T02:49:25;99784.13;;;10.56;54.89
54900;BME280;40801;41.924;25.562;2023-04-28T02:51:51;99783.50;;;10.45;54.30
54900;BME280;40801;41.924;25.562;2023-04-28T02:54:16;99792.13;;;10.61;54.40
54900;BME280;40801;41.924;25.562;2023-04-28T02:56:51;99800.03;;;10.58;54.11
54900;BME280;40801;41.924;25.562;2023-04-28T02:59:16;99801.84;;;10.62;54.12
54900;BME280;40801;41.924;25.562;2023-04-28T03:01:42;99806.63;;;10.65;54.23
54900;BME280;40801;41.924;25.562;2023-04-28T03:04:07;99806.94;;;10.64;54.54
54900;BME280;40801;41.924;25.562;2023-04-28T03:06:33;99808.53;;;10.65;54.76
54900;BME280;40801;41.924;25.562;2023-04-28T03:08:58;99810.72;;;10.63;55.54
54900;BME280;40801;41.924;25.562;2023-04-28T03:11:23;99817.09;;;10.53;54.94
54900;BME280;40801;41.924;25.562;2023-04-28T03:13:49;99812.59;;;10.48;55.05
54900;BME280;40801;41.924;25.562;2023-04-28T03:16:14;99810.09;;;10.52;55.35
54900;BME280;40801;41.924;25.562;2023-04-28T03:18:40;99819.28;;;10.51;55.67
54900;BME280;40801;41.924;25.562;2023-04-28T03:21:05;99823.56;;;10.52;55.36
54900;BME280;40801;41.924;25.562;2023-04-28T03:23:31;99834.56;;;10.55;55.82
54900;BME280;40801;41.924;25.562;2023-04-28T03:25:56;99832.69;;;10.56;55.38
54900;BME280;40801;41.924;25.562;2023-04-28T03:28:21;99838.66;;;10.53;55.45
54900;BME280;40801;41.924;25.562;2023-04-28T03:30:47;99840.06;;;10.50;55.52
54900;BME280;40801;41.924;25.562;2023-04-28T03:33:12;99847.84;;;10.52;55.71
54900;BME280;40801;41.924;25.562;2023-04-28T03:35:37;99849.16;;;10.54;55.68
54900;BME280;40801;41.924;25.562;2023-04-28T03:38:03;99848.16;;;10.50;56.20
54900;BME280;40801;41.924;25.562;2023-04-28T03:40:29;99863.66;;;10.59;55.36
54900;BME280;40801;41.924;25.562;2023-04-28T03:42:55;99873.72;;;10.53;56.29
54900;BME280;40801;41.924;25.562;2023-04-28T03:45:21;99875.31;;;10.54;56.39
54900;BME280;40801;41.924;25.562;2023-04-28T03:47:47;99888.22;;;10.57;56.83
54900;BME280;40801;41.924;25.562;2023-04-28T03:50:12;99894.41;;;10.58;56.61
54900;BME280;40801;41.924;25.562;2023-04-28T03:52:37;99897.41;;;10.56;56.50
54900;BME280;40801;41.924;25.562;2023-04-28T03:55:03;99904.41;;;10.57;56.64
54900;BME280;40801;41.924;25.562;2023-04-28T03:57:29;99902.78;;;10.56;56.63
54900;BME280;40801;41.924;25.562;2023-04-28T03:59:54;99906.00;;;10.58;56.64
54900;BME280;40801;41.924;25.562;2023-04-28T04:02:20;99910.50;;;10.63;56.75
54900;BME280;40801;41.924;25.562;2023-04-28T04:04:46;99911.81;;;10.65;57.39
54900;BME280;40801;41.924;25.562;2023-04-28T04:07:12;99920.13;;;10.69;58.38
54900;BME280;40801;41.924;25.562;2023-04-28T04:09:37;99918.03;;;10.66;58.44
54900;BME280;40801;41.924;25.562;2023-04-28T04:12:03;99923.06;;;10.72;58.82
54900;BME280;40801;41.924;25.562;2023-04-28T04:14:28;99924.72;;;10.68;59.71
54900;BME280;40801;41.924;25.562;2023-04-28T04:16:54;99923.38;;;10.71;60.10
54900;BME280;40801;41.924;25.562;2023-04-28T04:19:19;99927.97;;;10.70;60.58
54900;BME280;40801;41.924;25.562;2023-04-28T04:21:45;99930.13;;;10.68;61.37
54900;BME280;40801;41.924;25.562;2023-04-28T04:24:10;99933.91;;;10.67;61.75
54900;BME280;40801;41.924;25.562;2023-04-28T04:26:36;99932.59;;;10.65;61.84
54900;BME280;40801;41.924;25.562;2023-04-28T04:29:01;99945.00;;;10.66;62.00
54900;BME280;40801;41.924;25.562;2023-04-28T04:31:26;99948.16;;;10.73;61.78
54900;BME280;40801;41.924;25.562;2023-04-28T04:33:52;99938.75;;;10.70;61.35
54900;BME280;40801;41.924;25.562;2023-04-28T04:36:17;99942.28;;;10.66;61.69
54900;BME280;40801;41.924;25.562;2023-04-28T04:38:43;99943.91;;;10.67;61.78
54900;BME280;40801;41.924;25.562;2023-04-28T04:41:08;99952.88;;;10.62;62.03
54900;BME280;40801;41.924;25.562;2023-04-28T04:43:33;99953.88;;;10.66;61.66
54900;BME280;40801;41.924;25.562;2023-04-28T04:45:59;99951.69;;;10.68;61.28
54900;BME280;40801;41.924;25.562;2023-04-28T04:48:24;99953.03;;;10.71;61.22
54900;BME280;40801;41.924;25.562;2023-04-28T04:50:50;99956.47;;;10.76;61.02
54900;BME280;40801;41.924;25.562;2023-04-28T04:53:15;99956.75;;;10.75;61.01
54900;BME280;40801;41.924;25.562;2023-04-28T04:55:41;99961.41;;;10.88;61.08
54900;BME280;40801;41.924;25.562;2023-04-28T04:58:06;99966.38;;;11.00;60.65
54900;BME280;40801;41.924;25.562;2023-04-28T05:00:32;99969.88;;;11.00;60.48
54900;BME280;40801;41.924;25.562;2023-04-28T05:02:57;99979.63;;;11.15;60.67
54900;BME280;40801;41.924;25.562;2023-04-28T05:05:23;99977.56;;;11.26;60.60
54900;BME280;40801;41.924;25.562;2023-04-28T05:07:49;99978.50;;;11.35;60.57
54900;BME280;40801;41.924;25.562;2023-04-28T05:10:14;99986.78;;;11.57;60.01
54900;BME280;40801;41.924;25.562;2023-04-28T05:12:40;99985.63;;;11.77;59.32
54900;BME280;40801;41.924;25.562;2023-04-28T05:15:05;99989.28;;;11.86;58.90
54900;BME280;40801;41.924;25.562;2023-04-28T05:17:32;99988.09;;;12.06;57.99
54900;BME280;40801;41.924;25.562;2023-04-28T05:19:58;99989.81;;;12.16;57.31
54900;BME280;40801;41.924;25.562;2023-04-28T05:22:23;99988.81;;;12.25;56.08
54900;BME280;40801;41.924;25.562;2023-04-28T05:24:50;99987.41;;;12.28;55.67
54900;BME280;40801;41.924;25.562;2023-04-28T05:27:15;99991.50;;;12.39;55.49
54900;BME280;40801;41.924;25.562;2023-04-28T05:29:41;100003.13;;;12.39;54.72
54900;BME280;40801;41.924;25.562;2023-04-28T05:32:06;99995.72;;;12.45;54.20
54900;BME280;40801;41.924;25.562;2023-04-28T05:34:31;100001.91;;;12.59;54.71
54900;BME280;40801;41.924;25.562;2023-04-28T05:36:57;100001.09;;;12.73;54.27
54900;BME280;40801;41.924;25.562;2023-04-28T05:39:22;100010.91;;;12.68;54.02
54900;BME280;40801;41.924;25.562;2023-04-28T05:41:47;100007.31;;;12.73;54.15
54900;BME280;40801;41.924;25.562;2023-04-28T05:44:13;100015.94;;;12.75;53.65
54900;BME280;40801;41.924;25.562;2023-04-28T05:46:38;100019.22;;;12.72;53.52
54900;BME280;40801;41.924;25.562;2023-04-28T05:49:04;100015.00;;;12.80;52.87
54900;BME280;40801;41.924;25.562;2023-04-28T05:51:29;100019.50;;;12.84;52.91
54900;BME280;40801;41.924;25.562;2023-04-28T05:53:55;100031.13;;;12.85;52.87
54900;BME280;40801;41.924;25.562;2023-04-28T05:56:20;100033.97;;;12.80;52.38
54900;BME280;40801;41.924;25.562;2023-04-28T05:58:46;100027.13;;;12.82;52.41
54900;BME280;40801;41.924;25.562;2023-04-28T06:01:13;100025.13;;;12.88;52.02
54900;BME280;40801;41.924;25.562;2023-04-28T06:03:39;100043.00;;;12.75;51.75
54900;BME280;40801;41.924;25.562;2023-04-28T06:06:06;100044.59;;;12.76;51.37
54900;BME280;40801;41.924;25.562;2023-04-28T06:08:31;100036.28;;;12.73;51.63
54900;BME280;40801;41.924;25.562;2023-04-28T06:10:57;100032.84;;;12.67;51.21
54900;BME280;40801;41.924;25.562;2023-04-28T06:13:22;100035.56;;;12.81;51.34
54900;BME280;40801;41.924;25.562;2023-04-28T06:15:48;100042.38;;;12.64;50.66
54900;BME280;40801;41.924;25.562;2023-04-28T06:18:13;100043.84;;;12.98;50.89
54900;BME280;40801;41.924;25.562;2023-04-28T06:20:40;100044.88;;;12.88;50.28
54900;BME280;40801;41.924;25.562;2023-04-28T06:23:06;100049.25;;;12.98;50.24
54900;BME280;40801;41.924;25.562;2023-04-28T06:25:31;100050.66;;;12.95;50.16
54900;BME280;40801;41.924;25.562;2023-04-28T06:27:57;100055.53;;;13.21;50.12
54900;BME280;40801;41.924;25.562;2023-04-28T06:30:23;100048.38;;;13.39;49.85
54900;BME280;40801;41.924;25.562;2023-04-28T06:32:49;100047.28;;;13.62;49.49
54900;BME280;40801;41.924;25.562;2023-04-28T06:35:15;100044.88;;;13.60;48.64
54900;BME280;40801;41.924;25.562;2023-04-28T06:37:41;100051.47;;;13.68;48.91
54900;BME280;40801;41.924;25.562;2023-04-28T06:40:07;100044.50;;;13.53;48.33
54900;BME280;40801;41.924;25.562;2023-04-28T06:42:33;100050.03;;;13.48;47.71
54900;BME280;40801;41.924;25.562;2023-04-28T06:44:58;100052.88;;;13.66;47.82
54900;BME280;40801;41.924;25.562;2023-04-28T06:47:23;100052.22;;;13.60;47.79
54900;BME280;40801;41.924;25.562;2023-04-28T06:49:49;100048.00;;;13.76;47.58
54900;BME280;40801;41.924;25.562;2023-04-28T06:52:15;100054.28;;;13.85;47.46
54900;BME280;40801;41.924;25.562;2023-04-28T06:54:40;100056.31;;;13.80;46.71
54900;BME280;40801;41.924;25.562;2023-04-28T06:57:06;100044.16;;;14.00;46.83
54900;BME280;40801;41.924;25.562;2023-04-28T06:59:31;100055.81;;;14.40;46.79
54900;BME280;40801;41.924;25.562;2023-04-28T07:01:57;100046.09;;;14.78;46.64
54900;BME280;40801;41.924;25.562;2023-04-28T07:04:23;100054.09;;;14.92;45.41
54900;BME280;40801;41.924;25.562;2023-04-28T07:06:48;100047.09;;;15.52;45.69
54900;BME280;40801;41.924;25.562;2023-04-28T07:09:14;100037.59;;;16.01;44.21
54900;BME280;40801;41.924;25.562;2023-04-28T07:11:40;100044.31;;;16.50;43.46
54900;BME280;40801;41.924;25.562;2023-04-28T07:14:06;100042.84;;;16.53;42.99
54900;BME280;40801;41.924;25.562;2023-04-28T07:16:32;100044.59;;;16.57;42.03
54900;BME280;40801;41.924;25.562;2023-04-28T07:18:58;100052.63;;;16.45;42.03
54900;BME280;40801;41.924;25.562;2023-04-28T07:21:23;100042.50;;;16.16;42.34
54900;BME280;40801;41.924;25.562;2023-04-28T07:23:49;100048.88;;;15.65;42.93
54900;BME280;40801;41.924;25.562;2023-04-28T07:26:14;100049.78;;;15.95;43.36
54900;BME280;40801;41.924;25.562;2023-04-28T07:28:43;100047.44;;;15.67;43.10
54900;BME280;40801;41.924;25.562;2023-04-28T07:31:09;100052.63;;;16.07;42.96
54900;BME280;40801;41.924;25.562;2023-04-28T07:33:34;100046.91;;;16.38;42.85
54900;BME280;40801;41.924;25.562;2023-04-28T07:36:00;100047.28;;;16.66;42.91
54900;BME280;40801;41.924;25.562;2023-04-28T07:38:25;100047.03;;;17.09;41.71
54900;BME280;40801;41.924;25.562;2023-04-28T07:40:51;100037.53;;;17.36;40.55
54900;BME280;40801;41.924;25.562;2023-04-28T07:43:16;100030.56;;;17.80;39.20
54900;BME280;40801;41.924;25.562;2023-04-28T07:45:42;100030.41;;;18.34;38.89
54900;BME280;40801;41.924;25.562;2023-04-28T07:48:10;100030.41;;;18.34;38.04
54900;BME280;40801;41.924;25.562;2023-04-28T07:50:35;100028.59;;;18.75;37.60
54900;BME280;40801;41.924;25.562;2023-04-28T07:53:01;100026.88;;;18.95;37.45
54900;BME280;40801;41.924;25.562;2023-04-28T07:55:26;100025.53;;;19.29;35.67
54900;BME280;40801;41.924;25.562;2023-04-28T07:57:51;100022.38;;;19.55;35.44
54900;BME280;40801;41.924;25.562;2023-04-28T08:00:17;100015.97;;;19.63;35.18
54900;BME280;40801;41.924;25.562;2023-04-28T08:02:43;100024.00;;;19.15;34.51
54900;BME280;40801;41.924;25.562;2023-04-28T08:05:08;100027.41;;;19.12;34.65
54900;BME280;40801;41.924;25.562;2023-04-28T08:07:35;100018.50;;;19.56;34.81
54900;BME280;40801;41.924;25.562;2023-04-28T08:10:02;100017.63;;;19.95;33.86
54900;BME280;40801;41.924;25.562;2023-04-28T08:12:28;100021.59;;;20.61;33.53
54900;BME280;40801;41.924;25.562;2023-04-28T08:14:53;100015.13;;;21.04;33.38
54900;BME280;40801;41.924;25.562;2023-04-28T08:17:19;100010.31;;;21.36;32.67
54900;BME280;40801;41.924;25.562;2023-04-28T08:19:44;100010.25;;;21.71;32.31
54900;BME280;40801;41.924;25.562;2023-04-28T08:22:11;100008.53;;;21.44;31.89
54900;BME280;40801;41.924;25.562;2023-04-28T08:24:36;99999.09;;;21.64;30.56
54900;BME280;40801;41.924;25.562;2023-04-28T08:27:02;100003.88;;;21.67;31.05
54900;BME280;40801;41.924;25.562;2023-04-28T08:29:31;100006.63;;;21.90;30.69
54900;BME280;40801;41.924;25.562;2023-04-28T08:31:57;100002.94;;;21.59;30.39
54900;BME280;40801;41.924;25.562;2023-04-28T08:34:23;100003.75;;;21.21;30.67
54900;BME280;40801;41.924;25.562;2023-04-28T08:36:48;99984.75;;;21.71;30.61
54900;BME280;40801;41.924;25.562;2023-04-28T08:39:15;99992.47;;;21.65;31.14
54900;BME280;40801;41.924;25.562;2023-04-28T08:41:41;99993.47;;;21.76;30.74
54900;BME280;40801;41.924;25.562;2023-04-28T08:44:09;99995.03;;;22.46;30.38
54900;BME280;40801;41.924;25.562;2023-04-28T08:46:38;99986.69;;;21.93;26.76
54900;BME280;40801;41.924;25.562;2023-04-28T08:49:05;99979.53;;;23.51;27.49
54900;BME280;40801;41.924;25.562;2023-04-28T08:51:34;99981.03;;;22.81;28.25
54900;BME280;40801;41.924;25.562;2023-04-28T08:54:03;99984.50;;;23.04;28.66
54900;BME280;40801;41.924;25.562;2023-04-28T08:56:31;99981.72;;;22.74;28.84
54900;BME280;40801;41.924;25.562;2023-04-28T08:59:01;99967.16;;;23.00;28.39
54900;BME280;40801;41.924;25.562;2023-04-28T09:01:27;99966.34;;;23.67;27.32
54900;BME280;40801;41.924;25.562;2023-04-28T09:03:53;99974.38;;;23.12;27.55
54900;BME280;40801;41.924;25.562;2023-04-28T09:06:18;99975.03;;;21.77;28.45
54900;BME280;40801;41.924;25.562;2023-04-28T09:08:45;99972.44;;;22.30;28.92
54900;BME280;40801;41.924;25.562;2023-04-28T09:11:11;99975.78;;;22.72;28.89
54900;BME280;40801;41.924;25.562;2023-04-28T09:13:38;99968.19;;;23.96;26.15
54900;BME280;40801;41.924;25.562;2023-04-28T09:16:04;99964.34;;;24.01;26.74
54900;BME280;40801;41.924;25.562;2023-04-28T09:18:30;99966.78;;;24.13;26.77
54900;BME280;40801;41.924;25.562;2023-04-28T09:21:08;99960.66;;;24.30;26.14
54900;BME280;40801;41.924;25.562;2023-04-28T09:23:45;99953.69;;;24.51;24.96
54900;BME280;40801;41.924;25.562;2023-04-28T09:26:12;99955.38;;;24.69;25.53
54900;BME280;40801;41.924;25.562;2023-04-28T09:28:37;99948.06;;;25.02;24.99
54900;BME280;40801;41.924;25.562;2023-04-28T09:31:03;99940.69;;;25.35;24.45
54900;BME280;40801;41.924;25.562;2023-04-28T09:33:29;99946.50;;;25.05;24.97
54900;BME280;40801;41.924;25.562;2023-04-28T09:35:54;99942.50;;;24.95;24.86
54900;BME280;40801;41.924;25.562;2023-04-28T09:38:21;99942.88;;;23.76;25.29
54900;BME280;40801;41.924;25.562;2023-04-28T09:40:56;99942.91;;;23.43;25.20
54900;BME280;40801;41.924;25.562;2023-04-28T09:43:40;99936.41;;;23.62;25.33
54900;BME280;40801;41.924;25.562;2023-04-28T09:46:06;99931.81;;;23.73;25.78
54900;BME280;40801;41.924;25.562;2023-04-28T09:48:33;99940.84;;;22.46;25.67
54900;BME280;40801;41.924;25.562;2023-04-28T09:51:04;99941.41;;;22.29;26.16
54900;BME280;40801;41.924;25.562;2023-04-28T09:53:31;99935.69;;;22.98;26.60
54900;BME280;40801;41.924;25.562;2023-04-28T09:55:58;99918.28;;;23.57;25.82
54900;BME280;40801;41.924;25.562;2023-04-28T09:58:25;99915.44;;;23.94;25.29
54900;BME280;40801;41.924;25.562;2023-04-28T10:00:55;99920.69;;;24.68;24.21
54900;BME280;40801;41.924;25.562;2023-04-28T10:03:23;99915.22;;;24.83;24.45
54900;BME280;40801;41.924;25.562;2023-04-28T10:05:49;99909.91;;;25.25;24.55
54900;BME280;40801;41.924;25.562;2023-04-28T10:08:17;99898.94;;;25.89;23.55
54900;BME280;40801;41.924;25.562;2023-04-28T10:10:45;99910.75;;;25.47;23.74
54900;BME280;40801;41.924;25.562;2023-04-28T10:13:14;99893.44;;;25.86;23.36
54900;BME280;40801;41.924;25.562;2023-04-28T10:15:39;99914.50;;;24.96;22.18
54900;BME280;40801;41.924;25.562;2023-04-28T10:18:05;99906.72;;;25.16;23.17
54900;BME280;40801;41.924;25.562;2023-04-28T10:20:31;99900.00;;;25.14;22.86
54900;BME280;40801;41.924;25.562;2023-04-28T10:26:02;99902.50;;;25.76;22.70
54900;BME280;40801;41.924;25.562;2023-04-28T10:28:28;99903.28;;;26.12;22.84
54900;BME280;40801;41.924;25.562;2023-04-28T10:31:23;99890.44;;;26.93;20.63
54900;BME280;40801;41.924;25.562;2023-04-28T10:33:49;99892.13;;;26.65;21.93
54900;BME280;40801;41.924;25.562;2023-04-28T10:36:47;99887.69;;;26.82;21.87
54900;BME280;40801;41.924;25.562;2023-04-28T10:39:15;99878.97;;;26.87;21.65
54900;BME280;40801;41.924;25.562;2023-04-28T10:41:41;99885.06;;;25.43;22.89
54900;BME280;40801;41.924;25.562;2023-04-28T10:47:13;99874.38;;;26.31;21.52
54900;BME280;40801;41.924;25.562;2023-04-28T10:55:36;99873.75;;;27.10;21.16
54900;BME280;40801;41.924;25.562;2023-04-28T11:00:39;99864.81;;;26.74;21.84
54900;BME280;40801;41.924;25.562;2023-04-28T11:03:05;99860.34;;;27.61;20.60
54900;BME280;40801;41.924;25.562;2023-04-28T11:05:30;99860.38;;;27.57;20.74
54900;BME280;40801;41.924;25.562;2023-04-28T11:08:31;99859.91;;;27.10;20.38
54900;BME280;40801;41.924;25.562;2023-04-28T11:11:19;99860.91;;;26.61;21.24
54900;BME280;40801;41.924;25.562;2023-04-28T11:13:45;99861.53;;;26.97;21.83
54900;BME280;40801;41.924;25.562;2023-04-28T11:16:16;99864.22;;;27.19;21.63
54900;BME280;40801;41.924;25.562;2023-04-28T11:18:56;99851.03;;;26.57;21.78
54900;BME280;40801;41.924;25.562;2023-04-28T11:21:24;99854.41;;;27.03;21.79
54900;BME280;40801;41.924;25.562;2023-04-28T11:23:50;99847.91;;;27.83;20.46
54900;BME280;40801;41.924;25.562;2023-04-28T11:26:16;99857.34;;;26.57;21.17
54900;BME280;40801;41.924;25.562;2023-04-28T11:28:51;99861.50;;;27.08;20.55
54900;BME280;40801;41.924;25.562;2023-04-28T11:31:17;99857.66;;;26.80;21.83
54900;BME280;40801;41.924;25.562;2023-04-28T11:33:53;99857.81;;;26.45;21.69
54900;BME280;40801;41.924;25.562;2023-04-28T11:36:35;99859.81;;;26.37;22.17
54900;BME280;40801;41.924;25.562;2023-04-28T11:39:04;99857.50;;;25.79;22.46
54900;BME280;40801;41.924;25.562;2023-04-28T11:41:32;99857.88;;;25.70;23.03
54900;BME280;40801;41.924;25.562;2023-04-28T11:43:59;99851.84;;;24.97;23.63
54900;BME280;40801;41.924;25.562;2023-04-28T11:46:25;99851.97;;;24.31;24.41
54900;BME280;40801;41.924;25.562;2023-04-28T11:49:03;99848.69;;;24.91;24.23
54900;BME280;40801;41.924;25.562;2023-04-28T11:51:34;99856.28;;;25.58;23.45
54900;BME280;40801;41.924;25.562;2023-04-28T11:54:00;99846.81;;;25.38;23.27
54900;BME280;40801;41.924;25.562;2023-04-28T11:56:27;99850.34;;;26.17;23.42
54900;BME280;40801;41.924;25.562;2023-04-28T11:59:06;99850.66;;;26.51;20.96
54900;BME280;40801;41.924;25.562;2023-04-28T12:01:34;99846.91;;;26.97;21.93
54900;BME280;40801;41.924;25.562;2023-04-28T12:04:02;99843.91;;;26.66;21.69
54900;BME280;40801;41.924;25.562;2023-04-28T12:06:27;99825.28;;;27.40;21.67
54900;BME280;40801;41.924;25.562;2023-04-28T12:08:54;99825.19;;;27.54;22.20
54900;BME280;40801;41.924;25.562;2023-04-28T12:11:20;99825.06;;;27.68;21.57
54900;BME280;40801;41.924;25.562;2023-04-28T12:14:02;99831.78;;;26.17;20.70
54900;BME280;40801;41.924;25.562;2023-04-28T12:16:42;99818.03;;;25.85;22.27
54900;BME280;40801;41.924;25.562;2023-04-28T12:19:09;99818.22;;;26.59;21.68
54900;BME280;40801;41.924;25.562;2023-04-28T12:21:38;99809.94;;;26.55;22.26
54900;BME280;40801;41.924;25.562;2023-04-28T12:26:40;99799.59;;;26.73;21.91
54900;BME280;40801;41.924;25.562;2023-04-28T12:29:06;99793.56;;;27.44;22.15
54900;BME280;40801;41.924;25.562;2023-04-28T12:31:31;99792.22;;;28.08;20.65
54900;BME280;40801;41.924;25.562;2023-04-28T12:33:57;99796.50;;;27.79;20.98
54900;BME280;40801;41.924;25.562;2023-04-28T12:36:22;99779.72;;;27.89;21.25
54900;BME280;40801;41.924;25.562;2023-04-28T12:38:48;99783.13;;;28.72;21.23
54900;BME280;40801;41.924;25.562;2023-04-28T12:41:14;99775.94;;;28.75;20.36
54900;BME280;40801;41.924;25.562;2023-04-28T12:43:39;99777.69;;;28.34;20.82
54900;BME280;40801;41.924;25.562;2023-04-28T12:46:05;99778.16;;;28.22;20.38
54900;BME280;40801;41.924;25.562;2023-04-28T12:48:32;99766.75;;;27.83;21.26
54900;BME280;40801;41.924;25.562;2023-04-28T12:50:58;99765.13;;;26.81;22.07
54900;BME280;40801;41.924;25.562;2023-04-28T12:53:23;99773.06;;;26.79;22.44
54900;BME280;40801;41.924;25.562;2023-04-28T12:55:49;99774.72;;;26.70;21.75
54900;BME280;40801;41.924;25.562;2023-04-28T12:58:14;99777.47;;;26.70;21.40
54900;BME280;40801;41.924;25.562;2023-04-28T13:00:40;99761.34;;;26.54;21.00
54900;BME280;40801;41.924;25.562;2023-04-28T13:03:05;99746.16;;;26.80;20.36